createdAt,value
2023-04-10T00:00:39.865Z,93.61
2023-04-10T00:05:56.440Z,93.62
2023-04-10T00:11:00.225Z,93.75
2023-04-10T00:16:04.674Z,93.93
2023-04-10T00:21:08.529Z,94.14
2023-04-10T00:26:12.674Z,94.52
2023-04-10T00:31:17.873Z,94.63
2023-04-10T00:36:21.850Z,94.66
2023-04-10T00:41:26.413Z,94.57
2023-04-10T00:46:31.987Z,94.57
2023-04-10T00:51:37.608Z,94.42
2023-04-10T00:56:41.601Z,94.11
2023-04-10T01:01:45.714Z,94.17
2023-04-10T01:06:58.886Z,94.27
2023-04-10T01:12:30.839Z,94.28
2023-04-10T01:17:59.037Z,94.20
2023-04-10T01:23:31.136Z,94.14
2023-04-10T01:28:56.572Z,94.19
2023-04-10T01:34:06.639Z,94.23
2023-04-10T01:39:10.973Z,94.23
2023-04-10T01:44:16.537Z,94.17
2023-04-10T01:49:21.246Z,94.13
2023-04-10T01:54:27.965Z,94.12
2023-04-10T01:59:32.406Z,94.13
2023-04-10T02:04:36.417Z,93.90
2023-04-10T02:09:59.516Z,93.72
2023-04-10T02:15:06.739Z,93.67
2023-04-10T02:20:11.454Z,93.81
2023-04-10T02:25:17.018Z,93.79
2023-04-10T02:30:21.043Z,94.09
2023-04-10T02:35:24.937Z,94.05
2023-04-10T02:40:28.795Z,94.03
2023-04-10T02:45:47.059Z,94.14
2023-04-10T02:50:59.468Z,94.04
2023-04-10T02:56:06.974Z,93.86
2023-04-10T03:01:11.160Z,93.33
2023-04-10T03:06:21.267Z,93.07
2023-04-10T03:11:25.167Z,93.18
2023-04-10T03:16:28.978Z,93.41
2023-04-10T03:21:33.315Z,93.02
2023-04-10T03:26:37.097Z,93.11
2023-04-10T03:31:40.946Z,93.30
2023-04-10T03:36:45.316Z,93.50
2023-04-10T03:41:49.487Z,93.74
2023-04-10T03:46:54.124Z,93.91
2023-04-10T03:51:58.447Z,93.95
2023-04-10T03:57:02.392Z,93.92
2023-04-10T04:02:07.868Z,93.89
2023-04-10T04:07:14.724Z,93.78
2023-04-10T04:12:44.785Z,93.64
2023-04-10T04:18:04.312Z,93.74
2023-04-10T04:23:18.122Z,93.51
2023-04-10T04:28:42.180Z,93.62
2023-04-10T04:34:06.167Z,93.34
2023-04-10T04:39:30.122Z,93.54
2023-04-10T04:44:52.582Z,93.45
2023-04-10T04:50:19.275Z,94.01
2023-04-10T04:55:55.146Z,93.97
2023-04-10T05:01:18.023Z,93.89
2023-04-10T05:06:31.917Z,94.13
2023-04-10T05:11:51.674Z,93.82
2023-04-10T05:17:18.770Z,93.22
2023-04-10T05:22:39.269Z,92.71
2023-04-10T05:27:56.731Z,93.27
2023-04-10T05:33:16.460Z,92.91
2023-04-10T05:38:40.549Z,93.15
2023-04-10T05:43:53.103Z,92.85
2023-04-10T05:49:23.409Z,93.05
2023-04-10T05:54:58.995Z,93.49
2023-04-10T06:00:18.522Z,93.54
2023-04-10T06:05:49.535Z,93.30
2023-04-10T06:10:55.786Z,93.76
2023-04-10T06:16:00.282Z,93.83
2023-04-10T06:21:05.916Z,94.04
2023-04-10T06:26:12.553Z,94.18
2023-04-10T06:31:18.990Z,94.03
2023-04-10T06:36:24.953Z,93.91
2023-04-10T06:41:34.656Z,93.59
2023-04-10T06:46:56.031Z,94.31
2023-04-10T06:52:00.087Z,94.41
2023-04-10T06:57:04.327Z,93.88
2023-04-10T07:02:08.558Z,93.17
2023-04-10T07:07:13.774Z,93.29
2023-04-10T07:12:17.561Z,93.57
2023-04-10T07:17:22.246Z,93.52
2023-04-10T07:22:29.693Z,92.25
2023-04-10T07:27:34.326Z,92.17
2023-04-10T07:32:47.643Z,92.11
2023-04-10T07:37:58.362Z,91.54
2023-04-10T07:43:05.815Z,91.48
2023-04-10T07:48:09.718Z,90.96
2023-04-10T07:53:13.622Z,89.97
2023-04-10T07:58:18.030Z,89.37
2023-04-10T08:03:21.864Z,89.19
2023-04-10T08:08:25.680Z,89.20
2023-04-10T08:13:29.425Z,88.15
2023-04-10T08:18:33.133Z,87.21
2023-04-10T08:23:36.868Z,87.57
2023-04-10T08:28:41.840Z,87.85
2023-04-10T08:33:45.626Z,88.10
2023-04-10T08:38:49.385Z,88.23
2023-04-10T08:43:53.567Z,87.73
2023-04-10T08:49:05.842Z,87.16
2023-04-10T08:54:20.593Z,86.86
2023-04-10T08:59:24.621Z,86.33
2023-04-10T09:04:28.559Z,85.33
2023-04-10T09:09:35.074Z,84.98
2023-04-10T09:14:38.836Z,85.01
2023-04-10T09:19:43.753Z,85.73
2023-04-10T09:24:48.749Z,82.26
2023-04-10T09:29:52.862Z,83.45
2023-04-10T09:34:59.686Z,82.03
2023-04-10T09:40:04.406Z,81.99
2023-04-10T09:45:08.311Z,80.72
2023-04-10T09:50:12.799Z,79.11
2023-04-10T09:55:17.610Z,79.31
2023-04-10T10:00:21.436Z,79.13
2023-04-10T10:05:30.817Z,78.22
2023-04-10T10:10:35.732Z,80.57
2023-04-10T10:15:51.454Z,79.39
2023-04-10T10:20:55.580Z,79.12
2023-04-10T10:26:02.466Z,79.44
2023-04-10T10:31:08.572Z,77.51
2023-04-10T10:36:14.229Z,76.43
2023-04-10T10:41:30.295Z,75.07
2023-04-10T10:46:44.324Z,74.49
2023-04-10T10:51:49.945Z,74.53
2023-04-10T10:56:53.659Z,74.70
2023-04-10T11:02:18.336Z,73.62
2023-04-10T11:07:22.540Z,72.79
2023-04-10T11:12:26.651Z,72.19
2023-04-10T11:17:48.060Z,72.87
2023-04-10T11:23:14.340Z,72.07
2023-04-10T11:28:37.580Z,73.89
2023-04-10T11:33:41.815Z,72.27
2023-04-10T11:39:02.803Z,73.12
2023-04-10T11:44:12.251Z,73.21
2023-04-10T11:49:24.320Z,72.93
2023-04-10T11:54:29.556Z,72.92
2023-04-10T11:59:34.618Z,71.31
2023-04-10T12:04:38.586Z,69.05
2023-04-10T12:09:43.086Z,66.08
2023-04-10T12:14:47.060Z,68.63
2023-04-10T12:19:51.010Z,67.23
2023-04-10T12:24:54.754Z,68.02
2023-04-10T12:29:59.261Z,66.95
2023-04-10T12:35:02.974Z,66.44
2023-04-10T12:40:07.969Z,67.30
2023-04-10T12:45:14.295Z,67.08
2023-04-10T12:50:19.275Z,64.82
2023-04-10T12:55:22.975Z,65.75
2023-04-10T13:00:26.779Z,64.40
2023-04-10T13:05:30.687Z,66.49
2023-04-10T13:10:34.494Z,66.87
2023-04-10T13:15:38.263Z,67.35
2023-04-10T13:20:42.221Z,64.83
2023-04-10T13:25:45.867Z,63.92
2023-04-10T13:30:49.566Z,63.49
2023-04-10T13:35:53.336Z,62.79
2023-04-10T13:40:57.145Z,63.12
2023-04-10T13:46:00.893Z,61.10
2023-04-10T13:51:04.820Z,59.94
2023-04-10T13:56:09.448Z,59.42
2023-04-10T14:01:13.876Z,60.12
2023-04-10T14:06:17.846Z,59.31
2023-04-10T14:11:22.258Z,59.66
2023-04-10T14:16:26.081Z,60.26
2023-04-10T14:21:29.826Z,60.83
2023-04-10T14:26:33.460Z,60.89
2023-04-10T14:31:44.282Z,60.00
2023-04-10T14:36:59.130Z,59.98
2023-04-10T14:42:03.207Z,60.48
2023-04-10T14:47:07.005Z,61.16
2023-04-10T14:52:10.906Z,60.58
2023-04-10T14:57:16.073Z,58.54
2023-04-10T15:02:19.932Z,60.90
2023-04-10T15:07:28.685Z,59.06
2023-04-10T15:12:32.378Z,61.00
2023-04-10T15:17:36.212Z,61.07
2023-04-10T15:22:42.869Z,60.43
2023-04-10T15:27:46.692Z,59.53
2023-04-10T15:32:50.544Z,60.86
2023-04-10T15:37:54.490Z,61.04
2023-04-10T15:42:58.791Z,61.29
2023-04-10T15:48:04.834Z,60.59
2023-04-10T15:53:09.022Z,61.60
2023-04-10T15:58:12.754Z,61.67
2023-04-10T16:03:16.863Z,61.84
2023-04-10T16:08:21.409Z,62.11
2023-04-10T16:13:26.059Z,62.14
2023-04-10T16:18:29.886Z,62.31
2023-04-10T16:23:33.726Z,62.00
2023-04-10T16:28:37.487Z,62.70
2023-04-10T16:33:42.495Z,62.89
2023-04-10T16:38:57.693Z,63.32
2023-04-10T16:44:07.437Z,63.56
2023-04-10T16:49:11.293Z,64.25
2023-04-10T16:54:15.663Z,63.57
2023-04-10T16:59:19.793Z,62.68
2023-04-10T17:04:23.688Z,61.04
2023-04-10T17:09:28.060Z,60.41
2023-04-10T17:14:37.491Z,61.68
2023-04-10T17:19:58.456Z,62.70
2023-04-10T17:25:15.657Z,62.93
2023-04-10T17:30:22.709Z,63.28
2023-04-10T17:35:26.769Z,64.29
2023-04-10T17:40:32.766Z,65.18
2023-04-10T17:45:40.974Z,66.16
2023-04-10T17:50:45.197Z,66.85
2023-04-10T17:55:49.444Z,67.73
2023-04-10T18:00:53.722Z,68.58
2023-04-10T18:05:57.545Z,69.90
2023-04-10T18:11:02.509Z,70.55
2023-04-10T18:16:07.607Z,70.97
2023-04-10T18:21:12.156Z,71.55
2023-04-10T18:26:16.567Z,73.79
2023-04-10T18:31:20.792Z,74.51
2023-04-10T18:36:26.694Z,73.58
2023-04-10T18:41:31.271Z,74.07
2023-04-10T18:46:35.616Z,74.77
2023-04-10T18:51:40.824Z,75.14
2023-04-10T18:56:44.990Z,76.16
2023-04-10T19:01:49.799Z,76.51
2023-04-10T19:06:54.823Z,76.98
2023-04-10T19:12:00.009Z,77.51
2023-04-10T19:17:06.480Z,78.48
2023-04-10T19:22:10.616Z,78.42
2023-04-10T19:27:14.710Z,78.67
2023-04-10T19:32:19.886Z,79.58
2023-04-10T19:37:26.742Z,79.73
2023-04-10T19:42:31.515Z,79.84
2023-04-10T19:47:35.464Z,80.31
2023-04-10T19:52:39.112Z,80.15
2023-04-10T19:57:48.721Z,80.25
2023-04-10T20:02:57.731Z,80.62
2023-04-10T20:08:04.077Z,81.68
2023-04-10T20:13:11.355Z,82.11
2023-04-10T20:18:18.225Z,82.82
2023-04-10T20:23:22.022Z,81.89
2023-04-10T20:28:25.874Z,81.75
2023-04-10T20:33:29.796Z,82.40
2023-04-10T20:38:35.815Z,83.14
2023-04-10T20:43:40.521Z,83.41
2023-04-10T20:48:48.335Z,83.44
2023-04-10T20:54:02.106Z,83.33
2023-04-10T20:59:18.140Z,84.10
2023-04-10T21:04:23.711Z,84.40
2023-04-10T21:09:27.744Z,84.65
2023-04-10T21:14:31.568Z,84.61
2023-04-10T21:19:35.478Z,84.72
2023-04-10T21:24:40.650Z,84.96
2023-04-10T21:29:45.548Z,85.19
2023-04-10T21:34:51.517Z,85.66
2023-04-10T21:40:00.757Z,86.35
2023-04-10T21:45:07.452Z,86.30
2023-04-10T21:50:14.157Z,86.16
2023-04-10T21:55:19.829Z,85.69
2023-04-10T22:00:24.477Z,85.34
2023-04-10T22:05:28.377Z,85.23
2023-04-10T22:10:32.184Z,85.78
2023-04-10T22:15:37.143Z,86.58
2023-04-10T22:20:41.433Z,87.55
2023-04-10T22:25:45.418Z,87.74
2023-04-10T22:30:49.232Z,87.78
2023-04-10T22:35:54.121Z,88.00
2023-04-10T22:40:58.104Z,88.34
2023-04-10T22:46:02.130Z,88.32
2023-04-10T22:51:13.853Z,88.05
2023-04-10T22:56:19.586Z,87.95
2023-04-10T23:01:23.457Z,87.72
2023-04-10T23:06:27.633Z,87.91
2023-04-10T23:11:31.397Z,88.01
2023-04-10T23:16:35.219Z,88.21
2023-04-10T23:21:39.016Z,88.37
2023-04-10T23:26:42.859Z,88.57
2023-04-10T23:31:46.555Z,88.57
2023-04-10T23:36:50.438Z,88.74
2023-04-10T23:41:54.192Z,89.25
2023-04-10T23:46:58.034Z,89.51
2023-04-10T23:52:01.618Z,89.71
2023-04-10T23:57:05.505Z,89.79
